Details From EPKK - BALICE
To EPZG - ZIELONA GORA BABIMOST
Flight Number -
Tags generated
Created
Modified
Stats Distance 195 nm / 361 km
Max Altitude 18,000 ft / 5,486 m
Waypoints 3
Social Downloads 0
Likes 0
Share VATSIM

Download

Looking for another format? Having issues loading an existing format? Contact us
Advertisement - Login to hide

Notes

Basic altitude profile: - Ascent Rate: 2500ft/min - Ascent Speed: 250kts - Cruise Altitude: 35000ft - Cruise Speed: 420kts - Descent Rate: 1500ft/min - Descent Speed: 250kts Options: - Use NATs: yes - Use PACOTS: yes - Use low airways: yes - Use high airways: yes

Route

EPKK GOMOR EPZG

ID Type Via Altitude Latitude Longitude Leg Dist Tot Dist Heading (true) Name
O EPKK APT - 0 ft / 0 m 50.07782˚ 19.78550˚ - 0 nm - BALICE
GOMOR FIX - 18,000 ft / 5,486 m 51.18333˚ 17.61722˚ 105 nm 105 nm 310° / 308° -
O EPZG APT - 0 ft / 0 m 52.13863˚ 15.79840˚ 88 nm 194 nm 311° / 310° ZIELONA GORA BABIMOST

Altitude Profile

Advertisement - Login to hide

Weather


0- 5 10 15 20 25 30 35+ Temperature / ° C

Clouds and Precipitation
Forecast for 2017-12-18 06:00 UTC. Updated 31 minutes ago

Ground ~20,000 ft ~40,000 ft Winds

EPKK

Details ICAO EPKK (KRK)
Name BALICE
Region Poland
Timezone Europe/Warsaw (UTC+1.0)
Stats Elevation 791 ft / 241 m (AMSL)
Location 50.077821° 19.785503°
Runways 1
Magnetic Variation 5.203° E

METAR

EPKK 180530Z 12001KT 1500 -SN BR BKN019 BKN035 M01/M02 Q1022 R25/1///95

Decode

TAF

TAF EPKK 172330Z 1800/1824 VRB02KT 2000 BR BKN040 TEMPO 1800/1808 0500 FZFG BKN002 BECMG 1808/1811 7000 BECMG 1815/1817 2000 BR

Decode

Departure Runways

ID Width Length Bearing (true) Bearing (mag) Surface Threshold Offset Overrun Length
07 197 ft / 60 m 8,343 ft / 2,543 m 77.75° 72.55° Concrete 0 ft / 0 m 0 ft / 0 m
25 197 ft / 60 m 8,343 ft / 2,543 m 257.77° 252.57° Concrete 784 ft / 239 m 0 ft / 0 m

EPZG

Details ICAO EPZG (IEG)
Name ZIELONA GORA BABIMOST
Region Poland
Timezone Europe/Warsaw (UTC+1.0)
Stats Elevation 193 ft / 59 m (AMSL)
Location 52.138633° 15.798400°
Runways 1
Magnetic Variation 4.427° E

METAR

EPZG 180530Z VRB02KT 2200 BR OVC038 M01/M01 Q1024

Decode

TAF

Not found

Destination Runways

ID Width Length Bearing (true) Bearing (mag) Surface Threshold Offset Overrun Length
06 197 ft / 60 m 8,169 ft / 2,490 m 64.50° 60.07° Concrete 0 ft / 0 m 0 ft / 0 m
24 197 ft / 60 m 8,169 ft / 2,490 m 244.52° 240.09° Concrete 0 ft / 0 m 0 ft / 0 m